createdAt,value
2022-11-06T00:00:33.211Z,4.53
2022-11-06T00:03:02.141Z,5.77
2022-11-06T00:05:49.292Z,4.67
2022-11-06T00:08:17.662Z,5.07
2022-11-06T00:10:45.732Z,5.30
2022-11-06T00:13:14.899Z,6.30
2022-11-06T00:15:42.757Z,6.40
2022-11-06T00:18:11.915Z,5.47
2022-11-06T00:20:39.883Z,5.67
2022-11-06T00:23:07.632Z,5.73
2022-11-06T00:25:36.081Z,5.20
2022-11-06T00:28:03.978Z,5.53
2022-11-06T00:30:33.059Z,5.50
2022-11-06T00:33:00.762Z,5.37
2022-11-06T00:35:28.511Z,4.80
2022-11-06T00:37:56.872Z,5.40
2022-11-06T00:40:24.703Z,5.30
2022-11-06T00:42:57.026Z,4.70
2022-11-06T00:45:25.584Z,5.30
2022-11-06T00:47:54.808Z,4.93
2022-11-06T00:50:26.399Z,7.00
2022-11-06T00:52:55.670Z,5.53
2022-11-06T00:55:23.313Z,6.20
2022-11-06T00:57:51.123Z,5.60
2022-11-06T01:00:20.514Z,5.60
2022-11-06T01:02:48.845Z,5.93
2022-11-06T01:05:18.646Z,5.80
2022-11-06T01:07:46.476Z,5.33
2022-11-06T01:10:14.371Z,5.10
2022-11-06T01:12:42.079Z,5.63
2022-11-06T01:15:10.717Z,5.23
2022-11-06T01:17:38.539Z,6.07
2022-11-06T01:20:07.075Z,5.10
2022-11-06T01:22:36.492Z,5.77
2022-11-06T01:25:04.510Z,5.87
2022-11-06T01:27:32.299Z,5.23
2022-11-06T01:30:00.385Z,4.90
2022-11-06T01:32:28.161Z,5.37
2022-11-06T01:34:55.879Z,5.90
2022-11-06T01:37:23.597Z,5.50
2022-11-06T01:39:52.763Z,6.00
2022-11-06T01:42:22.007Z,5.67
2022-11-06T01:45:27.224Z,5.27
2022-11-06T01:47:55.034Z,5.50
2022-11-06T01:50:23.305Z,5.50
2022-11-06T01:52:52.002Z,6.47
2022-11-06T01:55:25.311Z,5.70
2022-11-06T01:57:54.155Z,5.80
2022-11-06T02:00:22.051Z,5.53
2022-11-06T02:02:51.293Z,5.83
2022-11-06T02:05:19.529Z,6.80
2022-11-06T02:07:47.399Z,5.73
2022-11-06T02:10:15.191Z,6.80
2022-11-06T02:12:54.472Z,6.03
2022-11-06T02:15:31.588Z,7.17
2022-11-06T02:18:19.294Z,5.70
2022-11-06T02:21:03.399Z,36.17
2022-11-06T02:23:46.802Z,10.10
2022-11-06T02:26:28.209Z,5.97
2022-11-06T02:29:02.614Z,5.43
2022-11-06T02:31:35.749Z,6.67
2022-11-06T02:34:07.976Z,5.93
2022-11-06T02:36:39.662Z,6.20
2022-11-06T02:39:13.240Z,5.67
2022-11-06T02:41:45.385Z,4.97
2022-11-06T02:44:19.363Z,6.17
2022-11-06T02:46:52.000Z,5.70
2022-11-06T02:49:25.364Z,5.43
2022-11-06T02:51:57.963Z,7.17
2022-11-06T02:54:30.210Z,6.00
2022-11-06T02:57:02.168Z,5.50
2022-11-06T02:59:40.997Z,6.07
2022-11-06T03:02:14.426Z,5.60
2022-11-06T03:04:49.680Z,5.67
2022-11-06T03:07:24.194Z,5.57
2022-11-06T03:09:53.016Z,5.57
2022-11-06T03:12:26.371Z,5.90
2022-11-06T03:15:00.971Z,5.97
2022-11-06T03:17:39.409Z,5.40
2022-11-06T03:20:18.911Z,5.40
2022-11-06T03:22:52.796Z,6.90
2022-11-06T03:25:24.325Z,5.77
2022-11-06T03:28:02.761Z,6.03
2022-11-06T03:30:35.969Z,5.90
2022-11-06T03:33:11.727Z,6.53
2022-11-06T03:35:45.159Z,5.83
2022-11-06T03:38:19.102Z,6.20
2022-11-06T03:40:51.459Z,6.17
2022-11-06T03:43:24.018Z,6.37
2022-11-06T03:45:54.775Z,5.83
2022-11-06T03:48:27.498Z,6.50
2022-11-06T03:51:01.800Z,5.73
2022-11-06T03:53:34.183Z,6.20
2022-11-06T03:56:08.626Z,5.57
2022-11-06T03:58:43.725Z,6.43
2022-11-06T04:01:16.427Z,6.83
2022-11-06T04:03:50.458Z,6.50
2022-11-06T04:06:23.737Z,6.20
2022-11-06T04:09:12.050Z,5.80
2022-11-06T04:11:59.912Z,6.03
2022-11-06T04:14:30.846Z,6.83
2022-11-06T04:17:04.698Z,6.50
2022-11-06T04:19:32.547Z,6.90
2022-11-06T04:22:19.356Z,5.90
2022-11-06T04:25:16.017Z,6.63
2022-11-06T04:27:55.008Z,5.80
2022-11-06T04:30:22.914Z,5.57
2022-11-06T04:33:06.011Z,6.43
2022-11-06T04:35:43.736Z,6.57
2022-11-06T04:38:22.113Z,6.13
2022-11-06T04:40:57.193Z,6.80
2022-11-06T04:43:31.285Z,6.10
2022-11-06T04:46:02.798Z,5.93
2022-11-06T04:48:32.409Z,6.50
2022-11-06T04:51:02.851Z,7.33
2022-11-06T04:53:32.326Z,6.57
2022-11-06T04:56:03.051Z,6.83
2022-11-06T04:58:30.857Z,7.37
2022-11-06T05:00:58.637Z,6.37
2022-11-06T05:03:26.481Z,7.10
2022-11-06T05:05:55.608Z,6.00
2022-11-06T05:08:23.471Z,6.77
2022-11-06T05:10:51.115Z,6.40
2022-11-06T05:13:18.826Z,5.90
2022-11-06T05:15:46.544Z,6.60
2022-11-06T05:18:14.802Z,6.27
2022-11-06T05:20:42.855Z,6.93
2022-11-06T05:23:11.068Z,7.07
2022-11-06T05:25:40.616Z,6.33
2022-11-06T05:28:09.638Z,6.63
2022-11-06T05:30:38.333Z,6.40
2022-11-06T05:33:06.244Z,7.23
2022-11-06T05:35:33.951Z,6.60
2022-11-06T05:38:02.675Z,6.43
2022-11-06T05:40:31.790Z,6.43
2022-11-06T05:42:59.533Z,6.60
2022-11-06T05:45:27.318Z,6.53
2022-11-06T05:47:55.062Z,6.47
2022-11-06T05:50:22.818Z,6.93
2022-11-06T05:52:50.552Z,7.37
2022-11-06T05:55:18.501Z,6.70
2022-11-06T05:57:47.826Z,7.37
2022-11-06T06:00:15.943Z,6.43
2022-11-06T06:02:43.978Z,7.57
2022-11-06T06:05:14.183Z,6.67
2022-11-06T06:07:42.125Z,6.63
2022-11-06T06:10:11.101Z,7.73
2022-11-06T06:12:39.609Z,6.80
2022-11-06T06:15:09.709Z,7.50
2022-11-06T06:17:37.754Z,7.93
2022-11-06T06:20:06.351Z,6.70
2022-11-06T06:22:34.045Z,10.33
2022-11-06T06:25:01.860Z,7.40
2022-11-06T06:27:31.125Z,7.03
2022-11-06T06:29:58.983Z,7.97
2022-11-06T06:32:28.037Z,8.07
2022-11-06T06:34:55.798Z,7.87
2022-11-06T06:37:23.525Z,7.70
2022-11-06T06:39:51.514Z,7.30
2022-11-06T06:42:30.216Z,7.17
2022-11-06T06:44:59.162Z,6.87
2022-11-06T06:47:28.277Z,7.17
2022-11-06T06:49:56.048Z,8.27
2022-11-06T06:52:23.720Z,7.77
2022-11-06T06:54:51.657Z,8.50
2022-11-06T06:57:19.386Z,7.07
2022-11-06T06:59:47.192Z,7.57
2022-11-06T07:02:15.036Z,8.30
2022-11-06T07:04:44.307Z,7.27
2022-11-06T07:07:12.007Z,7.77
2022-11-06T07:09:41.708Z,7.00
2022-11-06T07:12:09.508Z,8.00
2022-11-06T07:14:37.366Z,7.20
2022-11-06T07:17:04.999Z,7.47
2022-11-06T07:19:32.848Z,7.40
2022-11-06T07:22:01.924Z,7.20
2022-11-06T07:24:29.694Z,7.87
2022-11-06T07:26:57.613Z,7.50
2022-11-06T07:29:25.424Z,7.57
2022-11-06T07:31:53.239Z,7.70
2022-11-06T07:34:20.971Z,6.67
2022-11-06T07:36:48.790Z,7.43
2022-11-06T07:39:18.241Z,6.43
2022-11-06T07:41:46.108Z,6.73
2022-11-06T07:44:14.524Z,7.23
2022-11-06T07:46:42.132Z,6.73
2022-11-06T07:49:11.070Z,7.83
2022-11-06T07:51:38.762Z,7.50
2022-11-06T07:54:06.594Z,7.53
2022-11-06T07:56:36.181Z,7.60
2022-11-06T07:59:04.185Z,7.33
2022-11-06T08:01:32.189Z,7.03
2022-11-06T08:04:00.252Z,6.87
2022-11-06T08:06:34.274Z,7.10
2022-11-06T08:09:02.223Z,7.30
2022-11-06T08:11:29.965Z,8.97
2022-11-06T08:14:01.143Z,8.03
2022-11-06T08:16:29.281Z,6.43
2022-11-06T08:18:57.275Z,6.30
2022-11-06T08:21:25.151Z,7.70
2022-11-06T08:23:53.052Z,7.20
2022-11-06T08:26:20.739Z,7.43
2022-11-06T08:28:51.141Z,6.80
2022-11-06T08:31:21.255Z,7.87
2022-11-06T08:33:49.173Z,7.17
2022-11-06T08:36:16.923Z,7.63
2022-11-06T08:38:44.816Z,7.60
2022-11-06T08:41:13.471Z,7.50
2022-11-06T08:43:42.135Z,6.43
2022-11-06T08:46:11.468Z,6.53
2022-11-06T08:48:40.732Z,6.93
2022-11-06T08:51:09.014Z,8.03
2022-11-06T08:53:37.015Z,6.97
2022-11-06T08:56:05.415Z,6.37
2022-11-06T08:58:33.227Z,6.07
2022-11-06T09:01:01.145Z,6.70
2022-11-06T09:03:29.038Z,7.20
2022-11-06T09:05:58.445Z,6.40
2022-11-06T09:08:26.488Z,7.13
2022-11-06T09:10:58.336Z,6.37
2022-11-06T09:13:27.297Z,7.03
2022-11-06T09:15:55.202Z,7.93
2022-11-06T09:18:26.096Z,6.53
2022-11-06T09:20:55.964Z,5.63
2022-11-06T09:23:26.118Z,6.40
2022-11-06T09:25:54.242Z,6.40
2022-11-06T09:28:51.133Z,6.13
2022-11-06T09:31:18.921Z,6.53
2022-11-06T09:33:49.296Z,6.50
2022-11-06T09:36:17.216Z,5.73
2022-11-06T09:38:53.875Z,6.40
2022-11-06T09:41:31.550Z,6.50
2022-11-06T09:44:14.169Z,6.10
2022-11-06T09:46:45.561Z,6.63
2022-11-06T09:49:22.049Z,6.80
2022-11-06T09:51:55.649Z,7.53
2022-11-06T09:54:29.531Z,5.97
2022-11-06T09:57:05.958Z,5.33
2022-11-06T09:59:38.063Z,5.13
2022-11-06T10:02:21.628Z,5.90
2022-11-06T10:04:54.338Z,6.37
2022-11-06T10:07:28.440Z,5.60
2022-11-06T10:09:58.131Z,5.30
2022-11-06T10:12:35.922Z,5.37
2022-11-06T10:15:18.770Z,6.10
2022-11-06T10:18:00.052Z,5.67
2022-11-06T10:20:32.945Z,5.33
2022-11-06T10:23:06.462Z,6.40
2022-11-06T10:25:46.128Z,5.70
2022-11-06T10:28:30.622Z,5.50
2022-11-06T10:31:06.761Z,5.40
2022-11-06T10:33:50.178Z,5.23
2022-11-06T10:36:21.746Z,5.30
2022-11-06T10:38:51.773Z,5.13
2022-11-06T10:41:24.338Z,4.60
2022-11-06T10:43:57.406Z,4.87
2022-11-06T10:46:30.931Z,5.27
2022-11-06T10:49:02.196Z,10.00
2022-11-06T10:51:52.290Z,5.17
2022-11-06T10:54:32.278Z,5.33
2022-11-06T10:57:19.847Z,5.63
2022-11-06T10:59:49.604Z,5.43
2022-11-06T11:02:26.180Z,4.97
2022-11-06T11:04:57.726Z,4.73
2022-11-06T11:07:27.594Z,4.70
2022-11-06T11:09:55.601Z,5.40
2022-11-06T11:12:28.241Z,5.27
2022-11-06T11:15:15.345Z,6.40
2022-11-06T11:17:44.143Z,4.10
2022-11-06T11:20:32.251Z,4.43
2022-11-06T11:23:08.320Z,5.03
2022-11-06T11:25:36.317Z,5.00
2022-11-06T11:28:06.340Z,7.57
2022-11-06T11:30:34.513Z,5.13
2022-11-06T11:33:12.419Z,4.90
2022-11-06T11:35:40.398Z,4.80
2022-11-06T11:38:12.517Z,4.77
2022-11-06T11:40:41.385Z,4.03
2022-11-06T11:43:27.814Z,5.30
2022-11-06T11:46:13.283Z,4.17
2022-11-06T11:48:46.640Z,4.97
2022-11-06T11:51:27.740Z,4.37
2022-11-06T11:53:58.513Z,4.97
2022-11-06T11:56:57.886Z,4.80
2022-11-06T11:59:21.483Z,4.57
2022-11-06T12:01:50.222Z,4.63
2022-11-06T12:04:23.931Z,4.57
2022-11-06T12:06:55.845Z,4.73
2022-11-06T12:09:25.798Z,5.17
2022-11-06T12:11:56.307Z,4.83
2022-11-06T12:14:32.541Z,4.13
2022-11-06T12:17:18.881Z,7.97
2022-11-06T12:19:53.035Z,3.63
2022-11-06T12:22:28.818Z,3.97
2022-11-06T12:25:03.844Z,4.27
2022-11-06T12:27:36.362Z,3.43
2022-11-06T12:30:08.439Z,3.90
2022-11-06T12:32:47.497Z,3.83
2022-11-06T12:35:23.476Z,4.23
2022-11-06T12:38:00.990Z,3.70
2022-11-06T12:40:31.221Z,4.27
2022-11-06T12:43:11.841Z,4.47
2022-11-06T12:45:53.127Z,4.00
2022-11-06T12:48:33.799Z,4.03
2022-11-06T12:51:12.559Z,4.50
2022-11-06T12:53:54.495Z,3.63
2022-11-06T12:56:29.307Z,3.70
2022-11-06T12:59:13.223Z,3.63
2022-11-06T13:01:54.104Z,3.70
2022-11-06T13:04:45.683Z,3.90
2022-11-06T13:07:36.060Z,4.57
2022-11-06T13:10:25.046Z,3.43
2022-11-06T13:13:04.666Z,11.00
2022-11-06T13:15:40.078Z,4.43
2022-11-06T13:18:16.907Z,4.03
2022-11-06T13:20:53.915Z,4.53
2022-11-06T13:23:29.183Z,2.90
2022-11-06T13:26:04.171Z,4.13
2022-11-06T13:28:39.669Z,4.33
2022-11-06T13:31:10.701Z,4.40
2022-11-06T13:33:47.168Z,4.30
2022-11-06T13:36:15.782Z,4.53
2022-11-06T13:38:48.813Z,3.77
2022-11-06T13:41:22.703Z,3.33
2022-11-06T13:43:55.524Z,3.50
2022-11-06T13:46:32.674Z,3.23
2022-11-06T13:49:10.572Z,3.90
2022-11-06T13:51:48.153Z,4.00
2022-11-06T13:54:26.621Z,4.83
2022-11-06T13:57:10.563Z,3.97
2022-11-06T14:00:04.548Z,3.53
2022-11-06T14:03:04.553Z,3.93
2022-11-06T14:05:50.519Z,2.87
2022-11-06T14:08:22.948Z,4.90
2022-11-06T14:11:00.698Z,4.23
2022-11-06T14:13:32.406Z,4.63
2022-11-06T14:16:02.936Z,3.60
2022-11-06T14:18:31.035Z,4.40
2022-11-06T14:21:50.615Z,3.30
2022-11-06T14:24:41.989Z,3.50
2022-11-06T14:27:14.790Z,5.93
2022-11-06T14:30:05.453Z,3.57
2022-11-06T14:32:42.455Z,4.37
2022-11-06T14:35:46.974Z,3.50
2022-11-06T14:38:34.662Z,4.00
2022-11-06T14:41:48.137Z,3.70
2022-11-06T14:44:51.595Z,3.53
2022-11-06T14:47:30.924Z,3.77
2022-11-06T14:50:02.787Z,4.20
2022-11-06T14:52:42.481Z,3.63
2022-11-06T14:55:25.213Z,3.70
2022-11-06T14:57:56.085Z,3.43
2022-11-06T15:00:42.755Z,3.27
2022-11-06T15:03:21.637Z,3.73
2022-11-06T15:05:52.711Z,3.30
2022-11-06T15:08:58.359Z,3.93
2022-11-06T15:11:52.124Z,4.43
2022-11-06T15:15:05.935Z,6.67
2022-11-06T15:17:37.023Z,4.20
2022-11-06T15:20:22.254Z,4.10
2022-11-06T15:23:05.242Z,4.03
2022-11-06T15:25:34.772Z,5.20
2022-11-06T15:28:07.753Z,4.53
2022-11-06T15:30:47.418Z,3.40
2022-11-06T15:33:23.233Z,4.00
2022-11-06T15:35:51.412Z,4.50
2022-11-06T15:38:22.910Z,4.73
2022-11-06T15:40:53.745Z,4.50
2022-11-06T15:43:31.588Z,4.60
2022-11-06T15:46:07.725Z,3.37
2022-11-06T15:48:37.202Z,3.47
2022-11-06T15:51:20.448Z,3.87
2022-11-06T15:53:48.210Z,4.37
2022-11-06T15:56:19.106Z,3.40
2022-11-06T15:58:47.051Z,3.47
2022-11-06T16:01:33.303Z,3.40
2022-11-06T16:04:09.473Z,3.97
2022-11-06T16:06:42.161Z,5.60
2022-11-06T16:09:17.317Z,4.23
2022-11-06T16:11:47.332Z,4.90
2022-11-06T16:14:15.646Z,4.27
2022-11-06T16:16:47.416Z,6.17
2022-11-06T16:19:28.149Z,5.87
2022-11-06T16:21:59.454Z,5.70
2022-11-06T16:24:31.619Z,6.03
2022-11-06T16:26:59.972Z,5.17
2022-11-06T16:29:30.236Z,6.30
2022-11-06T16:32:04.075Z,5.87
2022-11-06T16:34:44.507Z,5.60
2022-11-06T16:37:36.718Z,3.93
2022-11-06T16:40:07.233Z,4.13
2022-11-06T16:42:38.770Z,4.07
2022-11-06T16:45:19.569Z,5.50
2022-11-06T16:48:25.654Z,5.43
2022-11-06T16:50:56.752Z,4.37
2022-11-06T16:53:27.488Z,5.10
2022-11-06T16:55:57.314Z,4.47
2022-11-06T16:58:25.505Z,4.07
2022-11-06T17:01:01.920Z,4.60
2022-11-06T17:03:37.940Z,3.67
2022-11-06T17:06:16.992Z,4.77
2022-11-06T17:08:44.961Z,3.90
2022-11-06T17:11:21.592Z,4.30
2022-11-06T17:13:51.324Z,4.00
2022-11-06T17:16:21.741Z,4.37
2022-11-06T17:18:49.843Z,4.30
2022-11-06T17:21:23.076Z,4.30
2022-11-06T17:23:52.473Z,5.10
2022-11-06T17:26:22.926Z,4.90
2022-11-06T17:28:50.924Z,4.63
2022-11-06T17:31:21.675Z,4.70
2022-11-06T17:33:49.821Z,5.00
2022-11-06T17:36:21.041Z,4.67
2022-11-06T17:38:49.572Z,5.30
2022-11-06T17:41:29.790Z,5.17
2022-11-06T17:43:58.716Z,5.13
2022-11-06T17:46:28.336Z,5.00
2022-11-06T17:48:57.145Z,5.03
2022-11-06T17:51:44.315Z,4.87
2022-11-06T17:54:12.724Z,7.47
2022-11-06T17:56:41.127Z,5.13
2022-11-06T17:59:10.094Z,4.80
2022-11-06T18:01:38.202Z,5.10
2022-11-06T18:04:07.348Z,5.00
2022-11-06T18:06:38.183Z,4.43
2022-11-06T18:09:08.381Z,5.43
2022-11-06T18:11:36.151Z,7.17
2022-11-06T18:14:04.261Z,6.60
2022-11-06T18:16:35.210Z,5.30
2022-11-06T18:19:08.091Z,6.00
2022-11-06T18:21:37.469Z,7.03
2022-11-06T18:24:06.097Z,7.83
2022-11-06T18:26:34.050Z,6.77
2022-11-06T18:29:01.919Z,9.70
2022-11-06T18:31:29.845Z,7.30
2022-11-06T18:33:58.004Z,6.40
2022-11-06T18:36:25.920Z,7.73
2022-11-06T18:38:55.166Z,7.00
2022-11-06T18:41:25.749Z,6.53
2022-11-06T18:44:00.139Z,5.97
2022-11-06T18:46:30.088Z,6.63
2022-11-06T18:48:58.738Z,7.00
2022-11-06T18:51:35.080Z,6.50
2022-11-06T18:54:07.567Z,6.57
2022-11-06T18:56:37.316Z,6.47
2022-11-06T18:59:09.090Z,7.23
2022-11-06T19:01:39.843Z,7.17
2022-11-06T19:04:14.911Z,7.57
2022-11-06T19:06:43.395Z,7.37
2022-11-06T19:09:15.067Z,7.43
2022-11-06T19:11:42.797Z,7.00
2022-11-06T19:14:10.601Z,7.03
2022-11-06T19:16:38.565Z,7.27
2022-11-06T19:19:10.707Z,6.73
2022-11-06T19:21:41.448Z,7.10
2022-11-06T19:24:20.377Z,7.07
2022-11-06T19:26:50.561Z,7.63
2022-11-06T19:29:18.825Z,7.17
2022-11-06T19:31:49.544Z,7.37
2022-11-06T19:34:17.764Z,7.70
2022-11-06T19:36:45.845Z,7.20
2022-11-06T19:39:15.703Z,7.30
2022-11-06T19:41:44.710Z,7.87
2022-11-06T19:44:12.756Z,7.53
2022-11-06T19:46:40.668Z,7.37
2022-11-06T19:49:09.906Z,7.90
2022-11-06T19:51:38.783Z,8.13
2022-11-06T19:54:07.675Z,9.03
2022-11-06T19:56:37.071Z,7.80
2022-11-06T19:59:25.140Z,8.77
2022-11-06T20:01:53.290Z,7.90
2022-11-06T20:04:21.289Z,8.60
2022-11-06T20:06:49.231Z,8.33
2022-11-06T20:09:17.278Z,8.10
2022-11-06T20:11:46.541Z,7.67
2022-11-06T20:14:18.538Z,7.90
2022-11-06T20:16:46.373Z,9.07
2022-11-06T20:19:14.398Z,8.63
2022-11-06T20:21:42.208Z,8.07
2022-11-06T20:24:11.431Z,8.17
2022-11-06T20:26:41.019Z,8.13
2022-11-06T20:29:10.673Z,9.83
2022-11-06T20:31:39.390Z,9.03
2022-11-06T20:34:07.514Z,9.27
2022-11-06T20:36:35.696Z,14.00
2022-11-06T20:39:04.652Z,10.43
2022-11-06T20:41:33.039Z,14.40
2022-11-06T20:44:00.964Z,8.00
2022-11-06T20:46:30.424Z,9.47
2022-11-06T20:48:58.772Z,8.67
2022-11-06T20:51:29.430Z,10.03
2022-11-06T20:53:57.079Z,9.20
2022-11-06T20:56:26.187Z,10.27
2022-11-06T20:58:54.638Z,9.50
2022-11-06T21:01:24.825Z,8.57
2022-11-06T21:03:55.161Z,10.13
2022-11-06T21:06:24.770Z,9.10
2022-11-06T21:08:52.880Z,10.47
2022-11-06T21:11:23.561Z,10.33
2022-11-06T21:13:53.856Z,9.10
2022-11-06T21:16:24.378Z,10.20
2022-11-06T21:18:53.984Z,9.10
2022-11-06T21:21:23.904Z,8.80
2022-11-06T21:23:52.711Z,10.63
2022-11-06T21:26:22.990Z,9.77
2022-11-06T21:28:51.875Z,9.50
2022-11-06T21:31:22.266Z,10.00
2022-11-06T21:33:51.934Z,10.50
2022-11-06T21:36:25.289Z,11.10
2022-11-06T21:38:53.782Z,10.27
2022-11-06T21:41:24.441Z,10.77
2022-11-06T21:43:52.585Z,11.47
2022-11-06T21:46:23.848Z,11.70
2022-11-06T21:48:52.417Z,10.80
2022-11-06T21:51:24.299Z,10.67
2022-11-06T21:54:10.098Z,11.60
2022-11-06T21:56:38.869Z,12.27
2022-11-06T21:59:08.844Z,10.03
2022-11-06T22:01:37.126Z,11.13
2022-11-06T22:04:05.735Z,10.30
2022-11-06T22:06:35.357Z,11.30
2022-11-06T22:09:04.735Z,11.07
2022-11-06T22:11:34.494Z,11.00
2022-11-06T22:14:04.574Z,10.60
2022-11-06T22:16:35.047Z,10.70
2022-11-06T22:19:07.761Z,10.77
2022-11-06T22:21:38.485Z,10.03
2022-11-06T22:24:07.857Z,12.17
2022-11-06T22:26:37.821Z,11.03
2022-11-06T22:29:09.334Z,9.53
2022-11-06T22:31:37.262Z,10.30
2022-11-06T22:34:05.648Z,9.83
2022-11-06T22:36:33.655Z,9.73
2022-11-06T22:39:05.932Z,10.57
2022-11-06T22:41:33.959Z,9.97
2022-11-06T22:44:02.305Z,10.83
2022-11-06T22:46:31.148Z,10.93
2022-11-06T22:49:02.030Z,11.23
2022-11-06T22:51:31.813Z,10.50
2022-11-06T22:54:00.430Z,10.33
2022-11-06T22:56:31.364Z,10.67
2022-11-06T22:59:03.105Z,9.70
2022-11-06T23:01:36.059Z,10.47
2022-11-06T23:04:09.299Z,10.43
2022-11-06T23:06:37.484Z,11.03
2022-11-06T23:09:05.273Z,12.03
2022-11-06T23:11:37.283Z,11.47
2022-11-06T23:14:08.847Z,9.97
2022-11-06T23:16:55.313Z,9.43
2022-11-06T23:19:27.094Z,10.33
2022-11-06T23:22:16.292Z,10.20
2022-11-06T23:24:44.413Z,10.17
2022-11-06T23:27:13.722Z,10.17
2022-11-06T23:29:41.580Z,10.20
2022-11-06T23:32:09.568Z,10.90
2022-11-06T23:34:37.535Z,10.50
2022-11-06T23:37:09.079Z,14.27
2022-11-06T23:39:36.905Z,10.57
2022-11-06T23:42:05.015Z,10.60
2022-11-06T23:44:51.542Z,9.73
2022-11-06T23:47:19.455Z,9.90
2022-11-06T23:49:47.491Z,10.07
2022-11-06T23:52:15.455Z,10.43
2022-11-06T23:54:43.158Z,10.37
2022-11-06T23:57:11.655Z,10.50
2022-11-06T23:59:41.004Z,9.97
